sensor_id;sensor_type;location;lat;lon;timestamp;temperature;humidity
24207;DHT22;12351;52.284;9.160;2022-10-15T00:01:40;13.50;99.90
24207;DHT22;12351;52.284;9.160;2022-10-15T00:04:30;13.40;99.90
24207;DHT22;12351;52.284;9.160;2022-10-15T00:07:23;13.40;99.90
24207;DHT22;12351;52.284;9.160;2022-10-15T00:10:13;13.30;99.90
24207;DHT22;12351;52.284;9.160;2022-10-15T00:13:04;13.30;99.90
24207;DHT22;12351;52.284;9.160;2022-10-15T00:15:52;13.30;99.90
24207;DHT22;12351;52.284;9.160;2022-10-15T00:18:43;13.20;99.90
24207;DHT22;12351;52.284;9.160;2022-10-15T00:21:36;13.20;99.90
24207;DHT22;12351;52.284;9.160;2022-10-15T00:24:27;13.20;99.90
24207;DHT22;12351;52.284;9.160;2022-10-15T00:27:18;13.20;99.90
24207;DHT22;12351;52.284;9.160;2022-10-15T00:30:08;13.20;99.90
24207;DHT22;12351;52.284;9.160;2022-10-15T00:32:58;13.10;99.90
24207;DHT22;12351;52.284;9.160;2022-10-15T00:35:56;13.10;99.90
24207;DHT22;12351;52.284;9.160;2022-10-15T00:38:39;13.10;99.90
24207;DHT22;12351;52.284;9.160;2022-10-15T00:41:31;13.00;99.90
24207;DHT22;12351;52.284;9.160;2022-10-15T00:47:13;13.00;99.90
24207;DHT22;12351;52.284;9.160;2022-10-15T00:52:56;13.00;99.90
24207;DHT22;12351;52.284;9.160;2022-10-15T00:55:45;12.90;99.90
24207;DHT22;12351;52.284;9.160;2022-10-15T00:58:38;13.00;99.90
24207;DHT22;12351;52.284;9.160;2022-10-15T01:01:29;12.90;99.90
24207;DHT22;12351;52.284;9.160;2022-10-15T01:04:18;12.90;99.90
24207;DHT22;12351;52.284;9.160;2022-10-15T01:07:10;12.90;99.90
24207;DHT22;12351;52.284;9.160;2022-10-15T01:10:02;12.90;99.90
24207;DHT22;12351;52.284;9.160;2022-10-15T01:12:53;12.80;99.90
24207;DHT22;12351;52.284;9.160;2022-10-15T01:15:45;12.80;99.90
24207;DHT22;12351;52.284;9.160;2022-10-15T01:18:36;12.80;99.90
24207;DHT22;12351;52.284;9.160;2022-10-15T01:21:29;12.80;99.90
24207;DHT22;12351;52.284;9.160;2022-10-15T01:41:25;12.60;99.90
24207;DHT22;12351;52.284;9.160;2022-10-15T01:44:14;12.60;99.90
24207;DHT22;12351;52.284;9.160;2022-10-15T01:47:04;12.60;99.90
24207;DHT22;12351;52.284;9.160;2022-10-15T01:49:59;12.50;99.90
24207;DHT22;12351;52.284;9.160;2022-10-15T01:52:51;12.60;99.90
24207;DHT22;12351;52.284;9.160;2022-10-15T01:55:42;12.50;99.90
24207;DHT22;12351;52.284;9.160;2022-10-15T01:58:36;12.50;99.90
24207;DHT22;12351;52.284;9.160;2022-10-15T02:01:27;12.50;99.90
24207;DHT22;12351;52.284;9.160;2022-10-15T02:04:19;12.50;99.90
24207;DHT22;12351;52.284;9.160;2022-10-15T02:12:58;12.50;99.90
24207;DHT22;12351;52.284;9.160;2022-10-15T02:15:50;12.40;99.90
24207;DHT22;12351;52.284;9.160;2022-10-15T02:24:19;12.50;99.90
24207;DHT22;12351;52.284;9.160;2022-10-15T02:27:09;12.50;99.90
24207;DHT22;12351;52.284;9.160;2022-10-15T02:29:59;12.50;99.90
24207;DHT22;12351;52.284;9.160;2022-10-15T02:32:53;12.40;99.90
24207;DHT22;12351;52.284;9.160;2022-10-15T02:35:43;12.50;99.90
24207;DHT22;12351;52.284;9.160;2022-10-15T02:38:35;12.50;99.90
24207;DHT22;12351;52.284;9.160;2022-10-15T02:41:26;12.50;99.90
24207;DHT22;12351;52.284;9.160;2022-10-15T02:44:13;12.50;99.90
24207;DHT22;12351;52.284;9.160;2022-10-15T02:47:04;12.50;99.90
24207;DHT22;12351;52.284;9.160;2022-10-15T02:49:53;12.60;99.90
24207;DHT22;12351;52.284;9.160;2022-10-15T02:52:43;12.60;99.90
24207;DHT22;12351;52.284;9.160;2022-10-15T02:55:36;12.50;99.90
24207;DHT22;12351;52.284;9.160;2022-10-15T02:58:27;12.60;99.90
24207;DHT22;12351;52.284;9.160;2022-10-15T03:01:15;12.50;99.90
24207;DHT22;12351;52.284;9.160;2022-10-15T03:04:07;12.50;99.90
24207;DHT22;12351;52.284;9.160;2022-10-15T03:06:58;12.50;99.90
24207;DHT22;12351;52.284;9.160;2022-10-15T03:09:51;12.50;99.90
24207;DHT22;12351;52.284;9.160;2022-10-15T03:12:40;12.50;99.90
24207;DHT22;12351;52.284;9.160;2022-10-15T03:15:30;12.50;99.90
24207;DHT22;12351;52.284;9.160;2022-10-15T03:18:21;12.50;99.90
24207;DHT22;12351;52.284;9.160;2022-10-15T03:21:14;12.60;99.90
24207;DHT22;12351;52.284;9.160;2022-10-15T03:24:03;12.60;99.90
24207;DHT22;12351;52.284;9.160;2022-10-15T03:26:53;12.60;99.90
24207;DHT22;12351;52.284;9.160;2022-10-15T03:29:43;12.60;99.90
24207;DHT22;12351;52.284;9.160;2022-10-15T03:32:34;12.60;99.90
24207;DHT22;12351;52.284;9.160;2022-10-15T03:35:25;12.60;99.90
24207;DHT22;12351;52.284;9.160;2022-10-15T03:38:15;12.60;99.90
24207;DHT22;12351;52.284;9.160;2022-10-15T03:41:02;12.60;99.90
24207;DHT22;12351;52.284;9.160;2022-10-15T03:43:50;12.60;99.90
24207;DHT22;12351;52.284;9.160;2022-10-15T03:46:39;12.60;99.90
24207;DHT22;12351;52.284;9.160;2022-10-15T03:49:28;12.50;99.90
24207;DHT22;12351;52.284;9.160;2022-10-15T03:52:19;12.60;99.90
24207;DHT22;12351;52.284;9.160;2022-10-15T03:55:07;12.50;99.90
24207;DHT22;12351;52.284;9.160;2022-10-15T03:57:56;12.50;99.90
24207;DHT22;12351;52.284;9.160;2022-10-15T04:00:45;12.50;99.90
24207;DHT22;12351;52.284;9.160;2022-10-15T04:03:36;12.50;99.90
24207;DHT22;12351;52.284;9.160;2022-10-15T04:06:26;12.50;99.90
24207;DHT22;12351;52.284;9.160;2022-10-15T04:09:14;12.50;99.90
24207;DHT22;12351;52.284;9.160;2022-10-15T04:12:04;12.50;99.90
24207;DHT22;12351;52.284;9.160;2022-10-15T04:14:54;12.50;99.90
24207;DHT22;12351;52.284;9.160;2022-10-15T04:17:42;12.50;99.90
24207;DHT22;12351;52.284;9.160;2022-10-15T04:20:32;12.50;99.90
24207;DHT22;12351;52.284;9.160;2022-10-15T04:23:19;12.50;99.90
24207;DHT22;12351;52.284;9.160;2022-10-15T04:26:08;12.50;99.90
24207;DHT22;12351;52.284;9.160;2022-10-15T04:28:57;12.50;99.90
24207;DHT22;12351;52.284;9.160;2022-10-15T04:31:47;12.50;99.90
24207;DHT22;12351;52.284;9.160;2022-10-15T04:34:37;12.50;99.90
24207;DHT22;12351;52.284;9.160;2022-10-15T04:37:27;12.50;99.90
24207;DHT22;12351;52.284;9.160;2022-10-15T04:40:17;12.40;99.90
24207;DHT22;12351;52.284;9.160;2022-10-15T04:43:04;12.40;99.90
24207;DHT22;12351;52.284;9.160;2022-10-15T04:45:54;12.40;99.90
24207;DHT22;12351;52.284;9.160;2022-10-15T04:48:44;12.30;99.90
24207;DHT22;12351;52.284;9.160;2022-10-15T04:51:33;12.30;99.90
24207;DHT22;12351;52.284;9.160;2022-10-15T04:54:23;12.30;99.90
24207;DHT22;12351;52.284;9.160;2022-10-15T04:57:11;12.30;99.90
24207;DHT22;12351;52.284;9.160;2022-10-15T05:00:00;12.20;99.90
24207;DHT22;12351;52.284;9.160;2022-10-15T05:02:48;12.20;99.90
24207;DHT22;12351;52.284;9.160;2022-10-15T05:05:35;12.20;99.90
24207;DHT22;12351;52.284;9.160;2022-10-15T05:08:24;12.20;99.90
24207;DHT22;12351;52.284;9.160;2022-10-15T05:11:15;12.10;99.90
24207;DHT22;12351;52.284;9.160;2022-10-15T05:14:03;12.10;99.90
24207;DHT22;12351;52.284;9.160;2022-10-15T05:16:53;12.00;99.90
24207;DHT22;12351;52.284;9.160;2022-10-15T05:19:42;12.00;99.90
24207;DHT22;12351;52.284;9.160;2022-10-15T05:22:29;12.00;99.90
24207;DHT22;12351;52.284;9.160;2022-10-15T05:25:18;12.00;99.90
24207;DHT22;12351;52.284;9.160;2022-10-15T05:28:08;12.10;99.90
24207;DHT22;12351;52.284;9.160;2022-10-15T05:31:02;12.10;99.90
24207;DHT22;12351;52.284;9.160;2022-10-15T05:33:46;12.10;99.90
24207;DHT22;12351;52.284;9.160;2022-10-15T05:36:35;12.10;99.90
24207;DHT22;12351;52.284;9.160;2022-10-15T05:39:24;12.10;99.90
24207;DHT22;12351;52.284;9.160;2022-10-15T05:42:13;12.20;99.90
24207;DHT22;12351;52.284;9.160;2022-10-15T05:45:00;12.20;99.90
24207;DHT22;12351;52.284;9.160;2022-10-15T05:47:48;12.20;99.90
24207;DHT22;12351;52.284;9.160;2022-10-15T05:50:38;12.20;99.90
24207;DHT22;12351;52.284;9.160;2022-10-15T05:53:25;12.20;99.90
24207;DHT22;12351;52.284;9.160;2022-10-15T05:56:15;12.30;99.90
24207;DHT22;12351;52.284;9.160;2022-10-15T05:59:02;12.20;99.90
24207;DHT22;12351;52.284;9.160;2022-10-15T06:01:49;12.20;99.90
24207;DHT22;12351;52.284;9.160;2022-10-15T06:04:36;12.30;99.90
24207;DHT22;12351;52.284;9.160;2022-10-15T06:07:23;12.20;99.90
24207;DHT22;12351;52.284;9.160;2022-10-15T06:10:12;12.30;99.90
24207;DHT22;12351;52.284;9.160;2022-10-15T06:13:00;12.20;99.90
24207;DHT22;12351;52.284;9.160;2022-10-15T06:15:50;12.30;99.90
24207;DHT22;12351;52.284;9.160;2022-10-15T06:18:39;12.30;99.90
24207;DHT22;12351;52.284;9.160;2022-10-15T06:21:32;12.30;99.90
24207;DHT22;12351;52.284;9.160;2022-10-15T06:24:21;12.30;99.90
24207;DHT22;12351;52.284;9.160;2022-10-15T06:27:09;12.30;99.90
24207;DHT22;12351;52.284;9.160;2022-10-15T06:29:58;12.40;99.90
24207;DHT22;12351;52.284;9.160;2022-10-15T06:32:50;12.40;99.90
24207;DHT22;12351;52.284;9.160;2022-10-15T06:35:40;12.40;99.90
24207;DHT22;12351;52.284;9.160;2022-10-15T06:38:30;12.40;99.90
24207;DHT22;12351;52.284;9.160;2022-10-15T06:41:20;12.50;99.90
24207;DHT22;12351;52.284;9.160;2022-10-15T06:44:08;12.50;99.90
24207;DHT22;12351;52.284;9.160;2022-10-15T06:46:57;12.50;99.90
24207;DHT22;12351;52.284;9.160;2022-10-15T06:49:45;12.60;99.90
24207;DHT22;12351;52.284;9.160;2022-10-15T06:52:33;12.60;99.90
24207;DHT22;12351;52.284;9.160;2022-10-15T06:55:22;12.70;99.90
24207;DHT22;12351;52.284;9.160;2022-10-15T06:58:11;12.70;99.90
24207;DHT22;12351;52.284;9.160;2022-10-15T07:01:02;12.80;99.90
24207;DHT22;12351;52.284;9.160;2022-10-15T07:03:51;12.80;99.90
24207;DHT22;12351;52.284;9.160;2022-10-15T07:06:40;12.80;99.90
24207;DHT22;12351;52.284;9.160;2022-10-15T07:09:30;12.80;99.90
24207;DHT22;12351;52.284;9.160;2022-10-15T07:12:18;12.90;99.90
24207;DHT22;12351;52.284;9.160;2022-10-15T07:15:07;12.90;99.90
24207;DHT22;12351;52.284;9.160;2022-10-15T07:17:58;12.90;99.90
24207;DHT22;12351;52.284;9.160;2022-10-15T07:20:47;12.90;99.90
24207;DHT22;12351;52.284;9.160;2022-10-15T07:23:36;13.00;99.90
24207;DHT22;12351;52.284;9.160;2022-10-15T07:26:25;13.00;99.90
24207;DHT22;12351;52.284;9.160;2022-10-15T07:29:14;13.10;99.90
24207;DHT22;12351;52.284;9.160;2022-10-15T07:32:04;13.10;99.90
24207;DHT22;12351;52.284;9.160;2022-10-15T07:34:51;13.20;99.90
24207;DHT22;12351;52.284;9.160;2022-10-15T07:37:39;13.20;99.90
24207;DHT22;12351;52.284;9.160;2022-10-15T07:40:27;13.30;99.90
24207;DHT22;12351;52.284;9.160;2022-10-15T07:43:17;13.20;99.90
24207;DHT22;12351;52.284;9.160;2022-10-15T07:46:05;13.30;99.90
24207;DHT22;12351;52.284;9.160;2022-10-15T07:48:54;13.40;99.90
24207;DHT22;12351;52.284;9.160;2022-10-15T07:51:42;13.60;99.90
24207;DHT22;12351;52.284;9.160;2022-10-15T07:54:34;13.50;99.90
24207;DHT22;12351;52.284;9.160;2022-10-15T07:57:24;13.50;99.90
24207;DHT22;12351;52.284;9.160;2022-10-15T08:00:11;13.70;99.90
24207;DHT22;12351;52.284;9.160;2022-10-15T08:03:01;13.60;99.90
24207;DHT22;12351;52.284;9.160;2022-10-15T08:05:48;13.60;99.90
24207;DHT22;12351;52.284;9.160;2022-10-15T08:08:39;13.70;99.90
24207;DHT22;12351;52.284;9.160;2022-10-15T08:11:28;13.60;99.90
24207;DHT22;12351;52.284;9.160;2022-10-15T08:14:15;13.60;99.90
24207;DHT22;12351;52.284;9.160;2022-10-15T08:17:03;13.70;99.90
24207;DHT22;12351;52.284;9.160;2022-10-15T08:19:54;13.70;99.90
24207;DHT22;12351;52.284;9.160;2022-10-15T08:22:44;13.70;99.90
24207;DHT22;12351;52.284;9.160;2022-10-15T08:25:32;13.80;99.90
24207;DHT22;12351;52.284;9.160;2022-10-15T08:28:22;13.80;99.90
24207;DHT22;12351;52.284;9.160;2022-10-15T08:31:10;13.90;99.90
24207;DHT22;12351;52.284;9.160;2022-10-15T08:34:00;14.00;99.90
24207;DHT22;12351;52.284;9.160;2022-10-15T08:36:49;14.00;99.90
24207;DHT22;12351;52.284;9.160;2022-10-15T08:39:37;14.00;99.90
24207;DHT22;12351;52.284;9.160;2022-10-15T08:42:30;14.10;99.90
24207;DHT22;12351;52.284;9.160;2022-10-15T08:45:23;14.10;99.90
24207;DHT22;12351;52.284;9.160;2022-10-15T08:51:01;14.30;99.90
24207;DHT22;12351;52.284;9.160;2022-10-15T08:53:50;14.40;99.90
24207;DHT22;12351;52.284;9.160;2022-10-15T08:56:39;14.40;99.90
24207;DHT22;12351;52.284;9.160;2022-10-15T09:02:22;14.50;99.90
24207;DHT22;12351;52.284;9.160;2022-10-15T09:10:45;14.70;99.90
24207;DHT22;12351;52.284;9.160;2022-10-15T09:13:33;14.70;99.90
24207;DHT22;12351;52.284;9.160;2022-10-15T09:19:15;14.70;99.90
24207;DHT22;12351;52.284;9.160;2022-10-15T09:22:02;14.70;99.90
24207;DHT22;12351;52.284;9.160;2022-10-15T09:24:52;14.70;99.90
24207;DHT22;12351;52.284;9.160;2022-10-15T09:27:40;14.70;99.90
24207;DHT22;12351;52.284;9.160;2022-10-15T09:33:26;14.90;99.90
24207;DHT22;12351;52.284;9.160;2022-10-15T09:36:16;15.00;99.90
24207;DHT22;12351;52.284;9.160;2022-10-15T09:39:08;15.10;99.90
24207;DHT22;12351;52.284;9.160;2022-10-15T09:44:44;15.20;99.90
24207;DHT22;12351;52.284;9.160;2022-10-15T09:47:36;15.30;99.90
24207;DHT22;12351;52.284;9.160;2022-10-15T09:50:22;15.40;99.90
24207;DHT22;12351;52.284;9.160;2022-10-15T10:01:32;15.60;99.90
24207;DHT22;12351;52.284;9.160;2022-10-15T10:04:23;15.70;99.90
24207;DHT22;12351;52.284;9.160;2022-10-15T10:07:26;15.70;99.90
24207;DHT22;12351;52.284;9.160;2022-10-15T10:10:04;15.90;99.90
24207;DHT22;12351;52.284;9.160;2022-10-15T10:12:51;15.90;99.90
24207;DHT22;12351;52.284;9.160;2022-10-15T10:15:42;15.90;99.90
24207;DHT22;12351;52.284;9.160;2022-10-15T10:18:31;16.00;99.90
24207;DHT22;12351;52.284;9.160;2022-10-15T10:27:02;16.10;99.90
24207;DHT22;12351;52.284;9.160;2022-10-15T10:29:53;16.00;99.90
24207;DHT22;12351;52.284;9.160;2022-10-15T10:32:44;16.00;99.90
24207;DHT22;12351;52.284;9.160;2022-10-15T10:35:34;16.20;99.90
24207;DHT22;12351;52.284;9.160;2022-10-15T10:38:25;16.20;99.90
24207;DHT22;12351;52.284;9.160;2022-10-15T10:41:12;16.20;99.90
24207;DHT22;12351;52.284;9.160;2022-10-15T10:44:01;16.30;99.90
24207;DHT22;12351;52.284;9.160;2022-10-15T10:47:00;16.40;99.90
24207;DHT22;12351;52.284;9.160;2022-10-15T10:49:43;16.50;99.90
24207;DHT22;12351;52.284;9.160;2022-10-15T10:52:33;16.50;99.90
24207;DHT22;12351;52.284;9.160;2022-10-15T10:55:23;16.50;99.90
24207;DHT22;12351;52.284;9.160;2022-10-15T10:58:17;16.40;99.90
24207;DHT22;12351;52.284;9.160;2022-10-15T11:01:10;16.50;99.90
24207;DHT22;12351;52.284;9.160;2022-10-15T11:03:58;16.40;99.90
24207;DHT22;12351;52.284;9.160;2022-10-15T11:06:52;16.40;99.90
24207;DHT22;12351;52.284;9.160;2022-10-15T11:20:59;16.60;99.90
24207;DHT22;12351;52.284;9.160;2022-10-15T11:23:49;16.70;99.90
24207;DHT22;12351;52.284;9.160;2022-10-15T11:26:41;16.60;99.90
24207;DHT22;12351;52.284;9.160;2022-10-15T11:29:32;16.80;99.90
24207;DHT22;12351;52.284;9.160;2022-10-15T11:35:13;16.70;99.90
24207;DHT22;12351;52.284;9.160;2022-10-15T11:52:21;17.80;99.90
24207;DHT22;12351;52.284;9.160;2022-10-15T11:57:56;17.70;99.90
24207;DHT22;12351;52.284;9.160;2022-10-15T12:00:46;17.70;99.90
24207;DHT22;12351;52.284;9.160;2022-10-15T12:03:35;17.90;99.90
24207;DHT22;12351;52.284;9.160;2022-10-15T12:06:25;17.80;99.90
24207;DHT22;12351;52.284;9.160;2022-10-15T12:09:18;18.00;99.90
24207;DHT22;12351;52.284;9.160;2022-10-15T12:12:07;17.80;99.90
24207;DHT22;12351;52.284;9.160;2022-10-15T12:15:03;17.60;99.90
24207;DHT22;12351;52.284;9.160;2022-10-15T12:20:26;18.30;99.90
24207;DHT22;12351;52.284;9.160;2022-10-15T12:28:57;18.20;99.90
24207;DHT22;12351;52.284;9.160;2022-10-15T12:31:49;18.30;99.90
24207;DHT22;12351;52.284;9.160;2022-10-15T12:34:39;18.40;99.90
24207;DHT22;12351;52.284;9.160;2022-10-15T12:37:31;18.70;99.90
24207;DHT22;12351;52.284;9.160;2022-10-15T12:40:24;19.00;99.90
24207;DHT22;12351;52.284;9.160;2022-10-15T12:43:13;18.70;99.90
24207;DHT22;12351;52.284;9.160;2022-10-15T12:46:02;18.80;99.90
24207;DHT22;12351;52.284;9.160;2022-10-15T12:48:50;19.00;99.90
24207;DHT22;12351;52.284;9.160;2022-10-15T12:51:39;18.90;99.90
24207;DHT22;12351;52.284;9.160;2022-10-15T12:59:59;18.60;99.90
24207;DHT22;12351;52.284;9.160;2022-10-15T13:02:47;18.50;99.90
24207;DHT22;12351;52.284;9.160;2022-10-15T13:05:37;18.20;99.90
24207;DHT22;12351;52.284;9.160;2022-10-15T13:08:24;18.10;99.90
24207;DHT22;12351;52.284;9.160;2022-10-15T13:11:17;18.10;99.90
24207;DHT22;12351;52.284;9.160;2022-10-15T13:16:55;18.20;99.90
24207;DHT22;12351;52.284;9.160;2022-10-15T13:19:46;18.30;99.90
24207;DHT22;12351;52.284;9.160;2022-10-15T13:22:35;18.30;99.90
24207;DHT22;12351;52.284;9.160;2022-10-15T13:25:22;18.10;99.90
24207;DHT22;12351;52.284;9.160;2022-10-15T13:31:01;18.10;99.90
24207;DHT22;12351;52.284;9.160;2022-10-15T13:33:51;18.00;99.90
24207;DHT22;12351;52.284;9.160;2022-10-15T13:36:39;18.00;99.90
24207;DHT22;12351;52.284;9.160;2022-10-15T13:42:20;18.20;99.90
24207;DHT22;12351;52.284;9.160;2022-10-15T13:48:00;18.10;99.90
24207;DHT22;12351;52.284;9.160;2022-10-15T13:50:52;18.20;99.90
24207;DHT22;12351;52.284;9.160;2022-10-15T13:53:42;18.10;99.90
24207;DHT22;12351;52.284;9.160;2022-10-15T13:56:33;18.20;99.90
24207;DHT22;12351;52.284;9.160;2022-10-15T13:59:22;18.30;99.90
24207;DHT22;12351;52.284;9.160;2022-10-15T14:02:12;18.30;99.90
24207;DHT22;12351;52.284;9.160;2022-10-15T14:07:53;18.00;99.90
24207;DHT22;12351;52.284;9.160;2022-10-15T14:10:41;17.90;99.90
24207;DHT22;12351;52.284;9.160;2022-10-15T14:13:28;17.90;99.90
24207;DHT22;12351;52.284;9.160;2022-10-15T14:21:58;17.70;99.90
24207;DHT22;12351;52.284;9.160;2022-10-15T14:24:49;17.50;99.90
24207;DHT22;12351;52.284;9.160;2022-10-15T14:27:43;17.40;99.90
24207;DHT22;12351;52.284;9.160;2022-10-15T14:30:33;17.10;99.90
24207;DHT22;12351;52.284;9.160;2022-10-15T14:41:57;17.00;99.90
24207;DHT22;12351;52.284;9.160;2022-10-15T14:44:48;17.00;99.90
24207;DHT22;12351;52.284;9.160;2022-10-15T14:47:36;16.90;99.90
24207;DHT22;12351;52.284;9.160;2022-10-15T14:50:30;16.90;99.90
24207;DHT22;12351;52.284;9.160;2022-10-15T14:53:18;16.90;99.90
24207;DHT22;12351;52.284;9.160;2022-10-15T14:58:59;16.80;99.90
24207;DHT22;12351;52.284;9.160;2022-10-15T15:04:42;16.80;99.90
24207;DHT22;12351;52.284;9.160;2022-10-15T15:07:30;16.70;99.90
24207;DHT22;12351;52.284;9.160;2022-10-15T15:10:22;16.70;99.90
24207;DHT22;12351;52.284;9.160;2022-10-15T15:13:13;16.70;99.90
24207;DHT22;12351;52.284;9.160;2022-10-15T15:16:04;16.70;99.90
24207;DHT22;12351;52.284;9.160;2022-10-15T15:18:54;16.60;99.90
24207;DHT22;12351;52.284;9.160;2022-10-15T15:21:47;16.50;99.90
24207;DHT22;12351;52.284;9.160;2022-10-15T15:24:38;16.50;99.90
24207;DHT22;12351;52.284;9.160;2022-10-15T15:27:29;16.50;99.90
24207;DHT22;12351;52.284;9.160;2022-10-15T15:30:19;16.60;99.90
24207;DHT22;12351;52.284;9.160;2022-10-15T15:33:12;16.50;99.90
24207;DHT22;12351;52.284;9.160;2022-10-15T15:36:05;16.50;99.90
24207;DHT22;12351;52.284;9.160;2022-10-15T15:38:55;16.50;99.90
24207;DHT22;12351;52.284;9.160;2022-10-15T15:41:45;16.50;99.90
24207;DHT22;12351;52.284;9.160;2022-10-15T15:44:37;16.50;99.90
24207;DHT22;12351;52.284;9.160;2022-10-15T15:47:24;16.50;99.90
24207;DHT22;12351;52.284;9.160;2022-10-15T15:50:14;16.50;99.90
24207;DHT22;12351;52.284;9.160;2022-10-15T15:53:04;16.60;99.90
24207;DHT22;12351;52.284;9.160;2022-10-15T15:55:55;16.60;99.90
24207;DHT22;12351;52.284;9.160;2022-10-15T15:58:48;16.60;99.90
24207;DHT22;12351;52.284;9.160;2022-10-15T16:01:39;16.50;99.90
24207;DHT22;12351;52.284;9.160;2022-10-15T16:04:29;16.40;99.90
24207;DHT22;12351;52.284;9.160;2022-10-15T16:07:19;16.40;99.90
24207;DHT22;12351;52.284;9.160;2022-10-15T16:10:08;16.40;99.90
24207;DHT22;12351;52.284;9.160;2022-10-15T16:13:00;16.40;99.90
24207;DHT22;12351;52.284;9.160;2022-10-15T16:15:49;16.40;99.90
24207;DHT22;12351;52.284;9.160;2022-10-15T16:18:39;16.30;99.90
24207;DHT22;12351;52.284;9.160;2022-10-15T16:21:28;16.30;99.90
24207;DHT22;12351;52.284;9.160;2022-10-15T16:24:17;16.20;99.90
24207;DHT22;12351;52.284;9.160;2022-10-15T16:27:09;16.30;99.90
24207;DHT22;12351;52.284;9.160;2022-10-15T16:30:01;16.30;99.90
24207;DHT22;12351;52.284;9.160;2022-10-15T16:32:50;16.20;99.90
24207;DHT22;12351;52.284;9.160;2022-10-15T16:35:38;16.20;99.90
24207;DHT22;12351;52.284;9.160;2022-10-15T16:38:31;16.20;99.90
24207;DHT22;12351;52.284;9.160;2022-10-15T16:41:18;16.30;99.90
24207;DHT22;12351;52.284;9.160;2022-10-15T16:44:11;16.30;99.90
24207;DHT22;12351;52.284;9.160;2022-10-15T16:46:58;16.30;99.90
24207;DHT22;12351;52.284;9.160;2022-10-15T16:49:47;16.30;99.90
24207;DHT22;12351;52.284;9.160;2022-10-15T16:52:39;16.30;99.90
24207;DHT22;12351;52.284;9.160;2022-10-15T16:55:26;16.30;99.90
24207;DHT22;12351;52.284;9.160;2022-10-15T16:58:15;16.30;99.90
24207;DHT22;12351;52.284;9.160;2022-10-15T17:01:06;16.30;99.90
24207;DHT22;12351;52.284;9.160;2022-10-15T17:03:54;16.40;99.90
24207;DHT22;12351;52.284;9.160;2022-10-15T17:06:46;16.30;99.90
24207;DHT22;12351;52.284;9.160;2022-10-15T17:09:35;16.40;99.90
24207;DHT22;12351;52.284;9.160;2022-10-15T17:12:26;16.40;99.90
24207;DHT22;12351;52.284;9.160;2022-10-15T17:15:16;16.40;99.90
24207;DHT22;12351;52.284;9.160;2022-10-15T17:18:06;16.40;99.90
24207;DHT22;12351;52.284;9.160;2022-10-15T17:20:56;16.30;99.90
24207;DHT22;12351;52.284;9.160;2022-10-15T17:23:50;16.30;99.90
24207;DHT22;12351;52.284;9.160;2022-10-15T17:26:39;16.30;99.90
24207;DHT22;12351;52.284;9.160;2022-10-15T17:29:30;16.20;99.90
24207;DHT22;12351;52.284;9.160;2022-10-15T17:32:21;16.20;99.90
24207;DHT22;12351;52.284;9.160;2022-10-15T17:35:11;16.20;99.90
24207;DHT22;12351;52.284;9.160;2022-10-15T17:38:02;16.20;99.90
24207;DHT22;12351;52.284;9.160;2022-10-15T17:40:54;16.20;99.90
24207;DHT22;12351;52.284;9.160;2022-10-15T17:43:47;16.10;99.90
24207;DHT22;12351;52.284;9.160;2022-10-15T17:46:39;16.10;99.90
24207;DHT22;12351;52.284;9.160;2022-10-15T17:49:31;16.10;99.90
24207;DHT22;12351;52.284;9.160;2022-10-15T17:52:23;16.10;99.90
24207;DHT22;12351;52.284;9.160;2022-10-15T17:55:12;16.10;99.90
24207;DHT22;12351;52.284;9.160;2022-10-15T17:58:02;16.10;99.90
24207;DHT22;12351;52.284;9.160;2022-10-15T18:00:53;16.10;99.90
24207;DHT22;12351;52.284;9.160;2022-10-15T18:03:45;16.10;99.90
24207;DHT22;12351;52.284;9.160;2022-10-15T18:06:34;16.10;99.90
24207;DHT22;12351;52.284;9.160;2022-10-15T18:09:26;16.00;99.90
24207;DHT22;12351;52.284;9.160;2022-10-15T18:12:18;16.00;99.90
24207;DHT22;12351;52.284;9.160;2022-10-15T18:15:08;16.00;99.90
24207;DHT22;12351;52.284;9.160;2022-10-15T18:17:55;16.00;99.90
24207;DHT22;12351;52.284;9.160;2022-10-15T18:20:46;16.00;99.90
24207;DHT22;12351;52.284;9.160;2022-10-15T18:23:35;16.00;99.90
24207;DHT22;12351;52.284;9.160;2022-10-15T18:26:27;16.00;99.90
24207;DHT22;12351;52.284;9.160;2022-10-15T18:29:18;16.10;99.90
24207;DHT22;12351;52.284;9.160;2022-10-15T18:32:08;16.00;99.90
24207;DHT22;12351;52.284;9.160;2022-10-15T18:34:58;16.00;99.90
24207;DHT22;12351;52.284;9.160;2022-10-15T18:37:48;16.00;99.90
24207;DHT22;12351;52.284;9.160;2022-10-15T18:40:41;16.00;99.90
24207;DHT22;12351;52.284;9.160;2022-10-15T18:43:30;16.00;99.90
24207;DHT22;12351;52.284;9.160;2022-10-15T18:46:23;16.00;99.90
24207;DHT22;12351;52.284;9.160;2022-10-15T18:49:16;16.00;99.90
24207;DHT22;12351;52.284;9.160;2022-10-15T18:52:08;16.00;99.90
24207;DHT22;12351;52.284;9.160;2022-10-15T18:54:58;16.00;99.90
24207;DHT22;12351;52.284;9.160;2022-10-15T18:57:47;16.00;99.90
24207;DHT22;12351;52.284;9.160;2022-10-15T19:00:35;16.00;99.90
24207;DHT22;12351;52.284;9.160;2022-10-15T19:03:28;16.00;99.90
24207;DHT22;12351;52.284;9.160;2022-10-15T19:06:17;16.00;99.90
24207;DHT22;12351;52.284;9.160;2022-10-15T19:09:10;16.00;99.90
24207;DHT22;12351;52.284;9.160;2022-10-15T19:11:59;16.00;99.90
24207;DHT22;12351;52.284;9.160;2022-10-15T19:14:51;16.00;99.90
24207;DHT22;12351;52.284;9.160;2022-10-15T19:17:42;15.90;99.90
24207;DHT22;12351;52.284;9.160;2022-10-15T19:20:34;15.90;99.90
24207;DHT22;12351;52.284;9.160;2022-10-15T19:23:24;15.90;99.90
24207;DHT22;12351;52.284;9.160;2022-10-15T19:26:12;15.90;99.90
24207;DHT22;12351;52.284;9.160;2022-10-15T19:29:01;15.90;99.90
24207;DHT22;12351;52.284;9.160;2022-10-15T19:31:51;15.90;99.90
24207;DHT22;12351;52.284;9.160;2022-10-15T19:34:40;15.90;99.90
24207;DHT22;12351;52.284;9.160;2022-10-15T19:37:27;15.80;99.90
24207;DHT22;12351;52.284;9.160;2022-10-15T19:40:17;15.80;99.90
24207;DHT22;12351;52.284;9.160;2022-10-15T19:43:05;15.80;99.90
24207;DHT22;12351;52.284;9.160;2022-10-15T19:45:54;15.80;99.90
24207;DHT22;12351;52.284;9.160;2022-10-15T19:48:43;15.80;99.90
24207;DHT22;12351;52.284;9.160;2022-10-15T19:51:33;15.80;99.90
24207;DHT22;12351;52.284;9.160;2022-10-15T19:54:22;15.80;99.90
24207;DHT22;12351;52.284;9.160;2022-10-15T19:57:09;15.70;99.90
24207;DHT22;12351;52.284;9.160;2022-10-15T19:59:59;15.70;99.90
24207;DHT22;12351;52.284;9.160;2022-10-15T20:02:46;15.70;99.90
24207;DHT22;12351;52.284;9.160;2022-10-15T20:05:36;15.70;99.90
24207;DHT22;12351;52.284;9.160;2022-10-15T20:08:24;15.70;99.90
24207;DHT22;12351;52.284;9.160;2022-10-15T20:11:15;15.60;99.90
24207;DHT22;12351;52.284;9.160;2022-10-15T20:14:04;15.60;99.90
24207;DHT22;12351;52.284;9.160;2022-10-15T20:16:52;15.50;99.90
24207;DHT22;12351;52.284;9.160;2022-10-15T20:19:41;15.50;99.90